NY Terminal Aviation Weather Discussion (AFD) - Prepared: 806 PM EDT THU SEP 3 2015
A COLD FRONT MOVES ACROSS THE AREA LATE TONIGHT INTO FRIDAY
MORNING. HIGH PRESSURE BUILDS IN THEREAFTER LATER FRIDAY AFTERNOON
INTO FRIDAY NIGHT. 

MAINLY VFR TONIGHT WITH THE ONLY EXCEPTIONS BEING ISOLATED MVFR
WITHIN FOG OR SHOWERS AND THUNDERSTORMS. THERE IS ONLY A SLIGHT
CHANCE OF SHOWERS AND THUNDERSTORMS SO TAFS DID NOT INCLUDE ANY
MENTION OF THEM. MVFR WILL BECOME MORE LIKELY FRIDAY WITH SOME
STRATUS DEVELOPING AND MOVING IN FROM THE EAST. CEILINGS FOR A FEW
TERMINALS COULD LOWER BELOW 2KFT AT TIMES. CEILINGS LIFT LATE IN
THE AFTERNOON AND SCATTER OUT BY FRIDAY EVENING.

WINDS WILL BE LIGHT AND VARIABLE TONIGHT...BECOMING AN INCREASING
E-NE FLOW FRIDAY 10-15 KT WITH GUSTS NEAR 20 KT. 

5 Day General Aviation Outlook:

.OUTLOOK FOR 00Z SATURDAY THROUGH TUESDAY...
.FRIDAY NIGHT...VFR. NE-E WINDS G15-20KT POSSIBLE.
.SATURDAY-TUESDAY...VFR.


*************************************************************************************
KJFK Terminal Weather:

FTNA35 KJFK 032345 RRG
KJFK 032339Z 0400/0506 15007KT P6SM SCT050 BKN250
     FM040200 VRB04KT P6SM SCT050 BKN200
     FM041100 05010KT P6SM BKN025
     FM041500 06013G20KT P6SM BKN030
     FM042100 08015G20KT P6SM BKN040
     FM050200 08014KT P6SM FEW040
KJFK FCSTER COMMENTS: AMENDMENTS POSSIBLE FOR ANY CONVECTION THAT
DEVELOPS NEARBY AS WELL AS TIMING OF GUSTS ON FRIDAY.

*************************************************************************************
KLGA Terminal Weather:
FTUS31 KLGA 032342
KLGA 032339Z 0400/0424 17008KT P6SM SCT050 BKN250
     FM040200 VRB04KT P6SM SCT050 BKN200
     FM041100 05010KT P6SM BKN025
     FM041500 05014G22KT P6SM BKN030
     FM042000 08015G21KT P6SM BKN040
KLGA FCSTER COMMENTS: AMENDMENTS POSSIBLE FOR ANY CONVECTION THAT
DEVELOPS NEARBY AS WELL AS TIMING OF GUSTS ON FRIDAY.

*************************************************************************************
KEWR Terminal Weather:
FTUS31 KEWR 032342
KEWR 032339Z 0400/0506 14006KT P6SM SCT050 BKN250
     FM040200 VRB04KT P6SM SCT050 BKN200
     FM041100 05007KT P6SM BKN025
     FM041600 09011G18KT P6SM BKN030
     FM042100 09010G18KT P6SM BKN040
     FM050200 07011KT P6SM FEW040
KEWR FCSTER COMMENTS: AMENDMENTS POSSIBLE FOR ANY CONVECTION THAT
DEVELOPS NEARBY AS WELL AS TIMING OF GUSTS ON FRIDAY.

*************************************************************************************
KTEB Terminal Weather:
FTUS80 KTEB 032342 RRF
KTEB 032339Z 0400/0424 VRB04KT P6SM SCT050 BKN250
     FM041100 05007KT P6SM BKN025
     FM041600 07010G18KT P6SM BKN030
     FM042100 11011G18KT P6SM BKN040
KTEB FCSTER COMMENTS: AMENDMENTS POSSIBLE FOR ANY CONVECTION THAT
DEVELOPS NEARBY AS WELL AS TIMING OF GUSTS ON FRIDAY.

*************************************************************************************
KHPN Terminal Weather:
FTUS41 KHPN 032342
KHPN 032339Z 0400/0424 VRB03KT P6SM SCT050 BKN250
     FM040900 03007KT 6SM BR SCT040 BKN100
     FM041100 04009KT 6SM BR BKN020
     FM041500 08012G17KT P6SM BKN025
     FM042000 09013G18KT P6SM BKN035 AMD NOT SKED
KHPN FCSTER COMMENTS: AMENDMENTS POSSIBLE FOR ANY CONVECTION THAT
DEVELOPS NEARBY AS WELL AS TIMING OF GUSTS ON FRIDAY.

*************************************************************************************
KISP Terminal Weather:
FTUS51 KISP 032342
KISP 032339Z 0400/0424 VRB04KT P6SM SCT050 BKN250
     FM041100 05011KT P6SM BKN025
     FM041500 06013G19KT P6SM BKN030
     FM042000 08014G20KT P6SM BKN035
KISP FCSTER COMMENTS: AMENDMENTS POSSIBLE FOR ANY CONVECTION THAT
DEVELOPS NEARBY AS WELL AS TIMING OF GUSTS ON FRIDAY. 

*************************************************************************************
5 Day General Outlook:

.OUTLOOK FOR 00Z SATURDAY THROUGH TUESDAY...
.FRIDAY NIGHT...VFR. NE-E WINDS G15-20KT POSSIBLE.
.SATURDAY-TUESDAY...VFR.


Click the Print Icon print icon below to print the briefing sheet